createdAt,value
2022-10-01T00:02:41.328Z,100098.34
2022-10-01T00:07:52.376Z,100094.30
2022-10-01T00:12:57.059Z,100097.58
2022-10-01T00:18:06.450Z,100097.50
2022-10-01T00:23:24.883Z,100098.12
2022-10-01T00:28:44.866Z,100093.30
2022-10-01T00:33:49.927Z,100092.59
2022-10-01T00:38:53.787Z,100097.27
2022-10-01T00:44:00.550Z,100095.16
2022-10-01T00:49:09.846Z,100094.88
2022-10-01T00:54:23.386Z,100100.98
2022-10-01T00:59:29.004Z,100094.65
2022-10-01T01:04:33.352Z,100091.91
2022-10-01T01:09:39.340Z,100095.25
2022-10-01T01:15:10.909Z,100085.58
2022-10-01T01:20:29.253Z,100080.24
2022-10-01T01:25:50.374Z,100074.36
2022-10-01T01:31:02.018Z,100076.91
2022-10-01T01:36:10.285Z,100076.19
2022-10-01T01:41:15.884Z,100077.64
2022-10-01T01:46:20.424Z,100078.04
2022-10-01T01:52:13.905Z,100077.61
2022-10-01T01:57:20.782Z,100074.56
2022-10-01T02:02:27.967Z,100068.29
2022-10-01T02:07:35.603Z,100063.55
2022-10-01T02:13:04.853Z,100065.27
2022-10-01T02:18:16.870Z,100050.61
2022-10-01T02:23:25.651Z,100044.74
2022-10-01T02:28:31.692Z,100040.02
2022-10-01T02:33:37.721Z,100039.91
2022-10-01T02:38:42.855Z,100038.77
2022-10-01T02:43:55.150Z,100036.61
2022-10-01T02:49:00.384Z,100026.98
2022-10-01T02:54:14.724Z,100025.05
2022-10-01T02:59:18.160Z,100023.39
2022-10-01T03:04:22.329Z,100027.73
2022-10-01T03:09:27.205Z,100026.89
2022-10-01T03:14:30.469Z,100020.11
2022-10-01T03:19:34.414Z,100018.30
2022-10-01T03:24:38.444Z,100023.67
2022-10-01T03:29:41.722Z,100019.98
2022-10-01T03:34:45.262Z,100016.80
2022-10-01T03:39:48.706Z,100010.60
2022-10-01T03:44:52.443Z,100004.26
2022-10-01T03:49:55.791Z,100001.60
2022-10-01T03:55:01.488Z,100003.83
2022-10-01T04:00:05.228Z,100004.29
2022-10-01T04:05:15.884Z,100007.17
2022-10-01T04:10:19.445Z,100003.63
2022-10-01T04:15:23.547Z,100001.77
2022-10-01T04:20:26.914Z,99998.58
2022-10-01T04:25:30.809Z,99995.61
2022-10-01T04:30:38.483Z,99999.73
2022-10-01T04:35:58.250Z,99998.77
2022-10-01T04:41:01.491Z,99997.42
2022-10-01T04:46:05.176Z,99994.97
2022-10-01T04:51:08.713Z,99998.58
2022-10-01T04:56:12.001Z,100003.04
2022-10-01T05:01:20.438Z,99997.98
2022-10-01T05:06:23.763Z,99997.38
2022-10-01T05:11:27.135Z,99996.72
2022-10-01T05:16:30.605Z,99990.08
2022-10-01T05:21:36.905Z,99987.84
2022-10-01T05:26:40.440Z,99982.23
2022-10-01T05:31:46.681Z,99984.72
2022-10-01T05:36:59.949Z,99982.59
2022-10-01T05:42:07.623Z,99987.05
2022-10-01T05:47:11.361Z,99989.07
2022-10-01T05:52:16.867Z,99990.23
2022-10-01T05:57:24.426Z,99981.06
2022-10-01T06:02:29.170Z,99980.03
2022-10-01T06:07:35.174Z,99981.20
2022-10-01T06:12:42.486Z,99978.34
2022-10-01T06:17:52.958Z,99979.17
2022-10-01T06:22:57.785Z,99984.20
2022-10-01T06:28:03.102Z,99986.75
2022-10-01T06:33:17.413Z,99980.81
2022-10-01T06:38:22.674Z,99977.65
2022-10-01T06:43:29.157Z,99975.92
2022-10-01T06:48:32.701Z,99972.05
2022-10-01T06:53:38.619Z,99972.05
2022-10-01T06:58:42.832Z,99966.86
2022-10-01T07:03:46.959Z,99960.30
2022-10-01T07:08:50.643Z,99952.60
2022-10-01T07:13:54.849Z,99948.06
2022-10-01T07:18:58.408Z,99949.44
2022-10-01T07:24:02.871Z,99951.25
2022-10-01T07:29:07.193Z,99948.77
2022-10-01T07:34:10.458Z,99933.78
2022-10-01T07:39:13.926Z,99931.36
2022-10-01T07:44:20.355Z,99924.28
2022-10-01T07:49:27.075Z,99924.11
2022-10-01T07:54:33.107Z,99919.94
2022-10-01T07:59:36.994Z,99913.27
2022-10-01T08:05:03.099Z,99917.05
2022-10-01T08:10:12.208Z,99916.10
2022-10-01T08:15:21.191Z,99916.52
2022-10-01T08:20:28.964Z,99902.15
2022-10-01T08:25:35.760Z,99896.52
2022-10-01T08:30:40.397Z,99892.25
2022-10-01T08:35:43.981Z,99882.85
2022-10-01T08:40:51.685Z,99869.21
2022-10-01T08:46:00.181Z,99859.60
2022-10-01T08:51:31.519Z,99851.15
2022-10-01T08:56:37.218Z,99838.56
2022-10-01T09:01:41.490Z,99834.27
2022-10-01T09:06:48.057Z,99829.56
2022-10-01T09:12:36.432Z,99820.25
2022-10-01T09:18:26.054Z,99813.77
2022-10-01T09:23:32.383Z,99805.70
2022-10-01T09:28:39.169Z,99801.48
2022-10-01T09:33:46.898Z,99794.94
2022-10-01T09:39:27.429Z,99784.19
2022-10-01T09:44:31.938Z,99782.07
2022-10-01T09:49:44.233Z,99780.22
2022-10-01T09:55:04.801Z,99775.11
2022-10-01T10:00:11.287Z,99762.92
2022-10-01T10:05:16.471Z,99757.61
2022-10-01T10:10:35.859Z,99751.09
2022-10-01T10:15:49.913Z,99744.40
2022-10-01T10:20:54.409Z,99741.94
2022-10-01T10:26:06.464Z,99738.72
2022-10-01T10:31:31.841Z,99729.63
2022-10-01T10:36:38.814Z,99722.44
2022-10-01T10:41:45.170Z,99714.59
2022-10-01T10:46:49.869Z,99707.25
2022-10-01T10:51:55.186Z,99700.01
2022-10-01T10:57:24.415Z,99687.19
2022-10-01T11:02:30.866Z,99679.93
2022-10-01T11:07:37.679Z,99677.98
2022-10-01T11:13:11.353Z,99667.69
2022-10-01T11:18:44.551Z,99662.92
2022-10-01T11:24:10.792Z,99650.36
2022-10-01T11:29:25.861Z,99637.98
2022-10-01T11:34:43.453Z,99636.84
2022-10-01T11:39:52.229Z,99630.83
2022-10-01T11:45:03.551Z,99625.60
2022-10-01T11:50:19.153Z,99621.98
2022-10-01T11:56:24.104Z,99615.18
2022-10-01T12:01:58.550Z,99609.61
2022-10-01T12:07:37.209Z,99606.19
2022-10-01T12:13:30.845Z,99598.88
2022-10-01T12:19:07.887Z,99595.98
2022-10-01T12:24:14.797Z,99592.71
2022-10-01T12:29:50.687Z,99588.51
2022-10-01T12:35:31.640Z,99574.92
2022-10-01T12:40:57.229Z,99568.34
2022-10-01T12:46:45.569Z,99554.21
2022-10-01T12:52:06.699Z,99547.85
2022-10-01T12:57:23.320Z,99542.08
2022-10-01T13:02:55.963Z,99543.83
2022-10-01T13:08:19.462Z,99545.02
2022-10-01T13:13:27.094Z,99544.55
2022-10-01T13:18:38.701Z,99531.73
2022-10-01T13:24:03.742Z,99525.98
2022-10-01T13:29:13.163Z,99521.45
2022-10-01T13:34:37.191Z,99521.74
2022-10-01T13:39:43.766Z,99520.73
2022-10-01T13:44:53.392Z,99522.60
2022-10-01T13:50:25.430Z,99522.83
2022-10-01T13:55:31.252Z,99520.54
2022-10-01T14:00:58.081Z,99511.46
2022-10-01T14:06:03.897Z,99501.98
2022-10-01T14:11:31.504Z,99496.52
2022-10-01T14:16:44.543Z,99489.05
2022-10-01T14:22:25.667Z,99477.23
2022-10-01T14:27:57.303Z,99472.25
2022-10-01T14:33:28.810Z,99467.27
2022-10-01T14:38:35.076Z,99462.83
2022-10-01T14:43:39.948Z,99457.48
2022-10-01T14:48:59.172Z,99455.67
2022-10-01T14:54:03.901Z,99455.31
2022-10-01T14:59:09.027Z,99459.37
2022-10-01T15:04:20.741Z,99479.94
2022-10-01T15:09:25.131Z,99498.34
2022-10-01T15:14:29.356Z,99516.11
2022-10-01T15:19:38.148Z,99519.08
2022-10-01T15:24:46.944Z,99520.91
2022-10-01T15:29:57.400Z,99516.67
2022-10-01T15:35:03.730Z,99509.48
2022-10-01T15:40:25.477Z,99512.07
2022-10-01T15:46:15.266Z,99511.63
2022-10-01T15:51:28.615Z,99513.35
2022-10-01T15:56:37.064Z,99507.83
2022-10-01T16:01:47.769Z,99503.33
2022-10-01T16:07:01.721Z,99495.25
2022-10-01T16:12:11.950Z,99495.44
2022-10-01T16:17:16.993Z,99488.39
2022-10-01T16:22:30.854Z,99493.83
2022-10-01T16:27:53.582Z,99491.50
2022-10-01T16:33:06.343Z,99484.30
2022-10-01T16:38:13.011Z,99490.03
2022-10-01T16:43:22.780Z,99490.41
2022-10-01T16:48:26.376Z,99492.60
2022-10-01T16:53:44.234Z,99491.11
2022-10-01T16:59:00.548Z,99490.73
2022-10-01T17:04:03.968Z,99498.33
2022-10-01T17:09:08.066Z,99490.43
2022-10-01T17:14:17.630Z,99494.79
2022-10-01T17:19:22.264Z,99495.73
2022-10-01T17:24:25.735Z,99509.13
2022-10-01T17:29:31.224Z,99510.55
2022-10-01T17:34:41.640Z,99508.45
2022-10-01T17:39:45.452Z,99503.50
2022-10-01T17:44:51.774Z,99507.00
2022-10-01T17:49:58.253Z,99506.26
2022-10-01T17:55:01.872Z,99506.56
2022-10-01T18:00:07.178Z,99509.11
2022-10-01T18:05:18.052Z,99512.54
2022-10-01T18:10:21.898Z,99518.55
2022-10-01T18:15:30.095Z,99530.14
2022-10-01T18:20:41.632Z,99533.34
2022-10-01T18:26:01.743Z,99538.53
2022-10-01T18:31:35.122Z,99530.07
2022-10-01T18:43:08.023Z,99540.52
2022-10-01T18:48:38.375Z,99534.98
2022-10-01T18:54:21.614Z,99527.31
2022-10-01T19:00:09.731Z,99530.40
2022-10-01T19:05:51.932Z,99531.30
2022-10-01T19:12:00.930Z,99531.42
2022-10-01T19:17:41.745Z,99535.02
2022-10-01T19:23:11.685Z,99536.22
2022-10-01T19:28:55.484Z,99534.07
2022-10-01T19:34:18.996Z,99535.94
2022-10-01T19:39:41.580Z,99537.73
2022-10-01T19:44:56.993Z,99539.07
2022-10-01T19:50:07.890Z,99544.92
2022-10-01T19:55:18.946Z,99549.80
2022-10-01T20:00:24.188Z,99552.02
2022-10-01T20:05:55.322Z,99560.45
2022-10-01T20:11:10.795Z,99559.14
2022-10-01T20:16:38.276Z,99556.47
2022-10-01T20:22:14.307Z,99555.30
2022-10-01T20:28:10.518Z,99560.40
2022-10-01T20:33:43.472Z,99562.73
2022-10-01T20:39:25.527Z,99562.80
2022-10-01T20:44:35.929Z,99559.58
2022-10-01T20:50:12.720Z,99568.55
2022-10-01T20:55:29.555Z,99572.61
2022-10-01T21:00:49.953Z,99576.34
2022-10-01T21:06:24.890Z,99581.85
2022-10-01T21:11:45.429Z,99587.81
2022-10-01T21:17:02.307Z,99590.12
2022-10-01T21:22:52.971Z,99592.70
2022-10-01T21:28:02.009Z,99596.56
2022-10-01T21:33:44.576Z,99599.73
2022-10-01T21:38:57.504Z,99606.81
2022-10-01T21:44:10.833Z,99608.80
2022-10-01T21:49:46.087Z,99609.59
2022-10-01T21:55:37.696Z,99616.12
2022-10-01T22:00:56.450Z,99617.42
2022-10-01T22:06:18.762Z,99619.38
2022-10-01T22:11:28.975Z,99620.70
2022-10-01T22:16:44.280Z,99627.68
2022-10-01T22:21:59.378Z,99633.55
2022-10-01T22:27:16.604Z,99636.39
2022-10-01T22:32:23.689Z,99641.23
2022-10-01T22:37:54.688Z,99646.45
2022-10-01T22:43:08.181Z,99651.85
2022-10-01T22:48:18.350Z,99658.74
2022-10-01T22:53:52.014Z,99659.20
2022-10-01T22:59:16.811Z,99665.27
2022-10-01T23:04:27.242Z,99670.17
2022-10-01T23:09:53.661Z,99667.91
2022-10-01T23:15:08.061Z,99673.09
2022-10-01T23:20:24.335Z,99686.89
2022-10-01T23:25:48.595Z,99698.21
2022-10-01T23:31:26.018Z,99703.07
2022-10-01T23:37:02.659Z,99719.54
2022-10-01T23:42:28.807Z,99718.89
2022-10-01T23:47:55.585Z,99728.27
2022-10-01T23:53:10.680Z,99739.89
2022-10-01T23:58:15.428Z,99747.96
